createdAt,value
2019-04-23T00:00:39.224Z,3.17
2019-04-23T00:02:58.554Z,2.83
2019-04-23T00:05:27.231Z,3.30
2019-04-23T00:07:39.143Z,3.07
2019-04-23T00:09:40.934Z,3.47
2019-04-23T00:11:51.634Z,2.80
2019-04-23T00:14:06.010Z,3.30
2019-04-23T00:16:17.009Z,3.20
2019-04-23T00:18:36.959Z,3.40
2019-04-23T00:20:43.071Z,3.33
2019-04-23T00:23:06.088Z,3.73
2019-04-23T00:25:47.092Z,3.43
2019-04-23T00:27:47.710Z,3.43
2019-04-23T00:29:56.004Z,3.53
2019-04-23T00:32:15.706Z,3.60
2019-04-23T00:34:24.652Z,3.37
2019-04-23T00:41:05.726Z,3.60
2019-04-23T00:43:22.990Z,3.03
2019-04-23T00:45:33.156Z,3.67
2019-04-23T00:49:59.933Z,3.37
2019-04-23T00:52:15.050Z,3.73
2019-04-23T00:54:26.277Z,3.80
2019-04-23T00:58:51.454Z,3.63
2019-04-23T01:01:00.519Z,4.00
2019-04-23T01:03:14.007Z,3.70
2019-04-23T01:07:38.572Z,4.30
2019-04-23T01:12:07.473Z,3.60
2019-04-23T01:14:20.202Z,3.73
2019-04-23T01:16:32.878Z,3.90
2019-04-23T01:18:51.466Z,4.13
2019-04-23T01:20:54.525Z,4.20
2019-04-23T01:23:03.382Z,3.80
2019-04-23T01:25:30.358Z,3.53
2019-04-23T01:28:04.319Z,3.60
2019-04-23T01:30:18.055Z,3.50
2019-04-23T01:32:34.869Z,4.10
2019-04-23T01:34:49.627Z,4.00
2019-04-23T01:36:56.046Z,4.07
2019-04-23T01:39:14.313Z,3.90
2019-04-23T01:41:26.547Z,3.97
2019-04-23T01:43:36.561Z,3.93
2019-04-23T01:45:47.881Z,3.53
2019-04-23T01:48:00.000Z,4.20
2019-04-23T01:52:31.883Z,4.00
2019-04-23T01:54:38.491Z,4.00
2019-04-23T01:56:49.383Z,4.13
2019-04-23T01:59:06.115Z,4.10
2019-04-23T02:01:20.806Z,4.27
2019-04-23T02:03:34.868Z,3.80
2019-04-23T02:12:27.715Z,4.17
2019-04-23T02:14:39.033Z,4.00
2019-04-23T02:16:50.279Z,4.60
2019-04-23T02:19:03.150Z,4.03
2019-04-23T02:21:22.613Z,4.10
2019-04-23T02:28:09.156Z,4.30
2019-04-23T02:30:40.261Z,4.43
2019-04-23T02:32:37.723Z,4.57
2019-04-23T02:36:59.903Z,4.10
2019-04-23T02:39:13.102Z,4.40
2019-04-23T02:43:50.999Z,4.83
2019-04-23T02:48:19.756Z,4.10
2019-04-23T02:50:34.866Z,4.20
2019-04-23T02:52:34.221Z,4.63
2019-04-23T02:54:50.423Z,4.13
2019-04-23T02:59:21.432Z,4.17
2019-04-23T03:01:31.683Z,4.40
2019-04-23T03:05:50.672Z,4.53
2019-04-23T03:07:59.923Z,4.60
2019-04-23T03:10:24.660Z,5.40
2019-04-23T03:12:31.813Z,4.60
2019-04-23T03:14:52.900Z,4.40
2019-04-23T03:19:13.594Z,4.90
2019-04-23T03:21:31.212Z,4.80
2019-04-23T03:24:01.545Z,4.60
2019-04-23T03:26:31.619Z,4.90
2019-04-23T03:28:38.120Z,4.67
2019-04-23T03:39:55.030Z,5.77
2019-04-23T03:41:50.317Z,5.80
2019-04-23T03:44:14.515Z,5.63
2019-04-23T03:48:38.773Z,6.63
2019-04-23T03:52:44.835Z,6.27
2019-04-23T03:55:27.905Z,6.03
2019-04-23T04:01:45.463Z,7.17
2019-04-23T04:04:20.319Z,8.27
2019-04-23T04:10:46.629Z,8.50
2019-04-23T04:15:12.084Z,7.80
2019-04-23T04:17:17.909Z,7.67
2019-04-23T04:24:05.456Z,7.00
2019-04-23T04:26:13.248Z,7.00
2019-04-23T04:30:43.172Z,7.10
2019-04-23T04:33:02.318Z,7.30
2019-04-23T04:35:20.978Z,7.17
2019-04-23T04:37:40.497Z,7.27
2019-04-23T04:39:29.280Z,7.40
2019-04-23T04:48:18.095Z,6.93
2019-04-23T04:50:32.797Z,7.07
2019-04-23T04:52:47.032Z,6.50
2019-04-23T04:54:58.044Z,7.10
2019-04-23T04:59:26.280Z,6.67
2019-04-23T05:03:36.290Z,6.40
2019-04-23T05:08:52.899Z,6.60
2019-04-23T05:10:36.303Z,6.20
2019-04-23T05:12:59.160Z,6.07
2019-04-23T05:17:13.505Z,6.10
2019-04-23T05:19:29.836Z,6.60
2019-04-23T05:21:41.261Z,6.40
2019-04-23T05:23:43.050Z,6.43
2019-04-23T05:26:02.346Z,7.07
2019-04-23T05:30:23.305Z,5.93
2019-04-23T05:32:32.796Z,6.10
2019-04-23T05:34:52.119Z,5.80
2019-04-23T05:37:01.916Z,6.10
2019-04-23T05:39:20.831Z,6.80
2019-04-23T05:43:40.910Z,6.07
2019-04-23T05:45:46.587Z,6.27
2019-04-23T05:48:13.364Z,5.97
2019-04-23T05:50:29.816Z,5.93
2019-04-23T05:52:29.741Z,5.93
2019-04-23T05:54:44.918Z,5.77
2019-04-23T05:56:56.697Z,6.10
2019-04-23T05:59:14.627Z,6.07
2019-04-23T06:03:44.358Z,5.23
2019-04-23T06:06:01.145Z,5.90
2019-04-23T06:08:11.607Z,5.67
2019-04-23T06:10:24.177Z,5.80
2019-04-23T06:12:31.917Z,5.70
2019-04-23T06:14:47.400Z,5.43
2019-04-23T06:16:59.004Z,5.40
2019-04-23T06:19:14.176Z,5.90
2019-04-23T06:21:26.828Z,5.67
2019-04-23T06:23:53.487Z,5.77
2019-04-23T06:28:08.203Z,5.77
2019-04-23T06:30:17.747Z,5.40
2019-04-23T06:32:29.831Z,5.80
2019-04-23T06:34:42.847Z,6.07
2019-04-23T06:36:51.418Z,5.60
2019-04-23T06:39:00.835Z,5.33
2019-04-23T06:41:25.562Z,5.40
2019-04-23T06:43:33.142Z,5.47
2019-04-23T06:45:43.188Z,5.50
2019-04-23T06:48:02.019Z,5.23
2019-04-23T06:50:14.827Z,5.60
2019-04-23T06:52:23.408Z,5.70
2019-04-23T06:54:45.945Z,5.77
2019-04-23T06:56:58.679Z,6.13
2019-04-23T06:59:09.714Z,5.40
2019-04-23T07:01:19.116Z,5.70
2019-04-23T07:06:13.550Z,5.60
2019-04-23T07:08:22.529Z,5.57
2019-04-23T07:10:33.329Z,5.73
2019-04-23T07:17:03.935Z,5.80
2019-04-23T07:19:26.921Z,5.03
2019-04-23T07:23:54.436Z,4.93
2019-04-23T07:26:10.117Z,5.87
2019-04-23T07:28:15.045Z,5.47
2019-04-23T07:30:23.759Z,5.30
2019-04-23T07:32:35.969Z,5.03
2019-04-23T07:34:57.409Z,5.23
2019-04-23T07:37:00.167Z,5.80
2019-04-23T07:39:25.590Z,5.40
2019-04-23T07:41:54.818Z,5.43
2019-04-23T07:44:17.319Z,4.90
2019-04-23T07:48:47.731Z,5.10
2019-04-23T07:51:00.557Z,5.17
2019-04-23T07:53:17.283Z,5.17
2019-04-23T07:55:43.333Z,5.40
2019-04-23T07:57:49.264Z,5.20
2019-04-23T08:00:03.441Z,5.57
2019-04-23T08:04:35.160Z,5.73
2019-04-23T08:06:40.043Z,5.00
2019-04-23T08:08:56.354Z,5.60
2019-04-23T08:13:37.936Z,5.27
2019-04-23T08:15:34.914Z,5.63
2019-04-23T08:17:45.064Z,5.43
2019-04-23T08:19:59.594Z,5.73
2019-04-23T08:24:52.176Z,6.00
2019-04-23T08:26:59.655Z,5.83
2019-04-23T08:29:19.937Z,5.17
2019-04-23T08:31:38.537Z,5.83
2019-04-23T08:33:50.004Z,5.60
2019-04-23T08:36:09.107Z,5.90
2019-04-23T08:38:22.560Z,5.57
2019-04-23T08:40:28.438Z,5.50
2019-04-23T08:42:58.540Z,5.47
2019-04-23T08:45:07.099Z,4.50
2019-04-23T08:47:18.833Z,5.20
2019-04-23T08:49:29.062Z,5.70
2019-04-23T08:54:15.356Z,5.37
2019-04-23T08:56:07.450Z,5.17
2019-04-23T08:58:32.473Z,5.37
2019-04-23T09:00:39.846Z,5.03
2019-04-23T09:02:55.034Z,5.00
2019-04-23T09:05:11.101Z,4.80
2019-04-23T09:07:27.938Z,5.53
2019-04-23T09:09:34.906Z,5.33
2019-04-23T09:11:45.951Z,5.10
2019-04-23T09:13:57.558Z,5.63
2019-04-23T09:16:22.140Z,5.57
2019-04-23T09:18:22.682Z,5.37
2019-04-23T09:20:41.170Z,5.30
2019-04-23T09:22:45.139Z,5.27
2019-04-23T09:25:03.968Z,5.07
2019-04-23T09:27:31.595Z,5.30
2019-04-23T09:29:36.609Z,5.23
2019-04-23T09:32:15.158Z,5.27
2019-04-23T09:34:31.388Z,5.30
2019-04-23T09:36:51.669Z,5.33
2019-04-23T09:39:01.332Z,4.87
2019-04-23T09:41:27.671Z,4.90
2019-04-23T09:43:59.423Z,5.60
2019-04-23T09:46:15.502Z,4.77
2019-04-23T09:48:18.056Z,5.50
2019-04-23T09:50:41.971Z,5.37
2019-04-23T09:53:07.497Z,5.20
2019-04-23T09:55:15.499Z,5.17
2019-04-23T09:57:11.049Z,4.73
2019-04-23T10:01:49.868Z,4.70
2019-04-23T10:03:46.275Z,5.03
2019-04-23T10:05:56.343Z,4.50
2019-04-23T10:08:05.102Z,4.83
2019-04-23T10:10:12.185Z,5.23
2019-04-23T10:12:24.291Z,5.10
2019-04-23T10:14:36.695Z,5.17
2019-04-23T10:16:49.396Z,4.70
2019-04-23T10:19:01.083Z,4.93
2019-04-23T10:21:13.122Z,4.50
2019-04-23T10:23:25.174Z,4.80
2019-04-23T10:25:36.279Z,4.70
2019-04-23T10:27:54.534Z,4.80
2019-04-23T10:30:01.621Z,4.43
2019-04-23T10:32:13.559Z,4.67
2019-04-23T10:34:25.373Z,4.97
2019-04-23T10:36:38.273Z,5.23
2019-04-23T10:38:56.081Z,4.80
2019-04-23T10:41:02.301Z,4.80
2019-04-23T10:43:13.335Z,4.97
2019-04-23T10:46:03.621Z,5.70
2019-04-23T10:48:32.845Z,4.50
2019-04-23T10:50:57.696Z,5.03
2019-04-23T10:53:20.173Z,4.70
2019-04-23T10:55:25.917Z,4.40
2019-04-23T10:57:45.900Z,4.77
2019-04-23T10:59:43.107Z,4.60
2019-04-23T11:02:21.694Z,4.47
2019-04-23T11:04:32.890Z,5.23
2019-04-23T11:06:38.841Z,4.80
2019-04-23T11:08:56.012Z,4.97
2019-04-23T11:11:03.167Z,5.13
2019-04-23T11:13:12.189Z,4.77
2019-04-23T11:17:38.666Z,5.40
2019-04-23T11:19:57.059Z,4.70
2019-04-23T11:22:21.032Z,4.90
2019-04-23T11:24:32.481Z,4.77
2019-04-23T11:28:38.374Z,4.67
2019-04-23T11:30:55.767Z,4.23
2019-04-23T11:38:11.897Z,4.97
2019-04-23T11:39:53.908Z,4.87
2019-04-23T11:42:06.637Z,4.73
2019-04-23T11:44:18.972Z,4.87
2019-04-23T11:46:46.217Z,5.03
2019-04-23T11:48:52.303Z,4.73
2019-04-23T11:51:26.187Z,4.60
2019-04-23T11:55:34.278Z,4.60
2019-04-23T11:59:51.901Z,3.93
2019-04-23T12:01:57.313Z,4.00
2019-04-23T12:04:38.682Z,4.50
2019-04-23T12:06:52.502Z,4.37
2019-04-23T12:09:16.889Z,4.23
2019-04-23T12:11:46.828Z,4.70
2019-04-23T12:13:56.592Z,4.20
2019-04-23T12:15:53.425Z,4.10
2019-04-23T12:18:25.452Z,4.43
2019-04-23T12:20:23.008Z,4.47
2019-04-23T12:22:42.488Z,4.60
2019-04-23T12:27:06.072Z,4.10
2019-04-23T12:29:20.542Z,4.30
2019-04-23T12:31:26.443Z,4.53
2019-04-23T12:33:47.071Z,4.13
2019-04-23T12:35:44.078Z,4.33
2019-04-23T12:38:13.899Z,4.40
2019-04-23T12:40:21.182Z,4.20
2019-04-23T12:42:50.411Z,4.50
2019-04-23T12:44:48.705Z,4.13
2019-04-23T12:47:07.031Z,4.20
2019-04-23T12:49:30.363Z,4.13
2019-04-23T12:51:35.087Z,3.90
2019-04-23T12:53:36.205Z,4.00
2019-04-23T12:58:11.204Z,4.03
2019-04-23T13:04:47.547Z,3.73
2019-04-23T13:06:50.915Z,3.90
2019-04-23T13:09:18.602Z,3.97
2019-04-23T13:11:25.809Z,4.20
2019-04-23T13:16:05.282Z,3.73
2019-04-23T13:20:19.404Z,4.40
2019-04-23T13:22:31.028Z,3.90
2019-04-23T13:24:46.327Z,3.80
2019-04-23T13:26:57.297Z,3.60
2019-04-23T13:29:13.834Z,4.03
2019-04-23T13:31:14.464Z,3.47
2019-04-23T13:33:40.528Z,3.70
2019-04-23T13:35:56.808Z,3.60
2019-04-23T13:40:17.699Z,3.83
2019-04-23T13:44:42.692Z,3.50
2019-04-23T13:46:50.971Z,4.03
2019-04-23T13:49:03.110Z,3.63
2019-04-23T13:55:42.524Z,3.27
2019-04-23T14:00:09.500Z,3.43
2019-04-23T14:02:34.254Z,3.90
2019-04-23T14:06:52.136Z,3.00
2019-04-23T14:09:34.312Z,3.63
2019-04-23T14:13:44.884Z,3.20
2019-04-23T14:15:56.693Z,3.53
2019-04-23T14:18:19.535Z,3.60
2019-04-23T14:20:15.252Z,3.47
2019-04-23T14:24:45.538Z,3.70
2019-04-23T14:26:48.893Z,3.77
2019-04-23T14:28:59.483Z,3.73
2019-04-23T14:31:16.856Z,3.27
2019-04-23T14:33:37.423Z,3.53
2019-04-23T14:35:46.710Z,3.43
2019-04-23T14:38:09.683Z,3.37
2019-04-23T14:40:20.114Z,3.20
2019-04-23T14:42:47.599Z,3.60
2019-04-23T14:44:41.009Z,3.13
2019-04-23T14:46:58.215Z,3.30
2019-04-23T14:49:27.403Z,3.30
2019-04-23T14:51:32.268Z,3.73
2019-04-23T14:55:56.970Z,3.57
2019-04-23T14:58:10.134Z,3.60
2019-04-23T15:00:18.680Z,3.20
2019-04-23T15:04:47.924Z,3.37
2019-04-23T15:09:18.870Z,3.67
2019-04-23T15:13:39.279Z,3.37
2019-04-23T15:16:00.743Z,3.23
2019-04-23T15:18:09.381Z,3.00
2019-04-23T15:20:17.655Z,3.73
2019-04-23T15:22:57.436Z,3.80
2019-04-23T15:24:40.814Z,3.10
2019-04-23T15:28:46.732Z,3.37
2019-04-23T15:31:30.814Z,3.37
2019-04-23T15:33:35.452Z,3.30
2019-04-23T15:36:06.628Z,3.10
2019-04-23T15:38:24.814Z,3.17
2019-04-23T15:42:26.690Z,3.53
2019-04-23T15:44:32.514Z,3.53
2019-04-23T15:46:47.216Z,3.10
2019-04-23T15:51:20.677Z,3.10
2019-04-23T15:53:17.983Z,3.40
2019-04-23T15:55:44.184Z,3.10
2019-04-23T15:58:09.923Z,3.60
2019-04-23T16:00:10.753Z,3.73
2019-04-23T16:01:51.199Z,3.50
2019-04-23T16:04:03.409Z,3.10
2019-04-23T16:06:20.952Z,3.20
2019-04-23T16:11:15.724Z,2.90
2019-04-23T16:13:31.183Z,3.60
2019-04-23T16:15:35.538Z,3.93
2019-04-23T16:18:01.644Z,3.47
2019-04-23T16:20:25.792Z,3.87
2019-04-23T16:22:39.676Z,3.83
2019-04-23T16:24:27.603Z,3.27
2019-04-23T16:26:58.941Z,3.27
2019-04-23T16:29:23.380Z,3.40
2019-04-23T16:31:20.876Z,3.50
2019-04-23T16:33:23.827Z,3.30
2019-04-23T16:35:51.132Z,3.40
2019-04-23T16:44:46.493Z,3.20
2019-04-23T16:46:58.464Z,3.23
2019-04-23T16:53:27.514Z,3.20
2019-04-23T16:55:50.065Z,3.00
2019-04-23T16:58:01.477Z,3.23
2019-04-23T17:00:25.948Z,2.80
2019-04-23T17:02:28.470Z,3.10
2019-04-23T17:08:57.096Z,2.93
2019-04-23T17:11:15.690Z,3.17
2019-04-23T17:15:48.201Z,2.83
2019-04-23T17:17:56.120Z,2.90
2019-04-23T17:20:10.285Z,2.80
2019-04-23T17:22:33.724Z,3.30
2019-04-23T17:27:02.277Z,3.00
2019-04-23T17:28:59.739Z,2.93
2019-04-23T17:31:26.219Z,3.27
2019-04-23T17:33:29.188Z,3.00
2019-04-23T17:35:55.611Z,3.23
2019-04-23T17:38:09.038Z,3.30
2019-04-23T17:40:17.820Z,3.27
2019-04-23T17:42:39.329Z,3.40
2019-04-23T17:49:44.082Z,3.23
2019-04-23T17:51:46.891Z,2.90
2019-04-23T17:53:58.294Z,3.73
2019-04-23T17:56:23.138Z,3.20
2019-04-23T17:58:23.339Z,3.43
2019-04-23T18:00:35.901Z,3.70
2019-04-23T18:05:08.252Z,3.27
2019-04-23T18:07:19.302Z,3.57
2019-04-23T18:11:47.596Z,3.43
2019-04-23T18:16:09.553Z,3.70
2019-04-23T18:18:32.850Z,3.53
2019-04-23T18:20:37.827Z,3.57
2019-04-23T18:25:11.183Z,3.60
2019-04-23T18:29:47.390Z,3.43
2019-04-23T18:32:16.748Z,3.83
2019-04-23T18:35:07.180Z,3.83
2019-04-23T18:36:59.620Z,3.93
2019-04-23T18:39:06.291Z,4.03
2019-04-23T18:41:35.213Z,3.37
2019-04-23T18:43:29.554Z,3.80
2019-04-23T18:45:53.914Z,3.53
2019-04-23T18:48:31.483Z,4.07
2019-04-23T18:50:39.686Z,3.90
2019-04-23T18:54:53.977Z,3.77
2019-04-23T18:59:28.729Z,3.90
2019-04-23T19:01:30.902Z,3.50
2019-04-23T19:04:09.867Z,3.80
2019-04-23T19:06:18.708Z,4.13
2019-04-23T19:10:57.409Z,3.70
2019-04-23T19:13:18.865Z,3.63
2019-04-23T19:15:28.559Z,3.63
2019-04-23T19:17:46.572Z,3.67
2019-04-23T19:19:55.653Z,3.50
2019-04-23T19:24:18.040Z,3.80
2019-04-23T19:26:55.246Z,3.57
2019-04-23T19:28:53.039Z,3.27
2019-04-23T19:31:16.465Z,3.30
2019-04-23T19:35:57.073Z,3.47
2019-04-23T19:37:49.597Z,3.50
2019-04-23T19:39:47.798Z,3.90
2019-04-23T19:44:16.241Z,3.43
2019-04-23T19:46:52.278Z,3.50
2019-04-23T19:53:33.786Z,3.60
2019-04-23T19:55:23.614Z,3.40
2019-04-23T19:59:50.574Z,3.40
2019-04-23T20:02:09.622Z,3.60
2019-04-23T20:04:04.243Z,3.30
2019-04-23T20:06:57.018Z,3.50
2019-04-23T20:08:53.279Z,3.20
2019-04-23T20:11:04.507Z,3.53
2019-04-23T20:13:13.401Z,3.30
2019-04-23T20:15:14.240Z,3.65
2019-04-23T20:19:44.767Z,2.97
2019-04-23T20:22:00.725Z,4.13
2019-04-23T20:24:21.210Z,3.60
2019-04-23T20:26:37.429Z,3.70
2019-04-23T20:29:09.744Z,3.53
2019-04-23T20:35:48.098Z,3.43
2019-04-23T20:38:27.614Z,3.90
2019-04-23T20:40:08.624Z,3.20
2019-04-23T20:42:16.286Z,3.30
2019-04-23T20:44:53.468Z,3.43
2019-04-23T20:46:52.364Z,3.33
2019-04-23T20:49:00.551Z,3.50
2019-04-23T20:51:16.717Z,3.60
2019-04-23T20:53:31.096Z,3.83
2019-04-23T20:55:58.440Z,3.30
2019-04-23T21:00:08.823Z,2.93
2019-04-23T21:04:48.674Z,3.70
2019-04-23T21:06:56.435Z,3.80
2019-04-23T21:11:24.147Z,4.00
2019-04-23T21:13:50.621Z,3.83
2019-04-23T21:15:46.034Z,3.60
2019-04-23T21:20:24.420Z,3.30
2019-04-23T21:24:45.876Z,3.80
2019-04-23T21:26:55.203Z,3.87
2019-04-23T21:28:58.617Z,4.70
2019-04-23T21:31:20.478Z,3.70
2019-04-23T21:33:35.306Z,3.73
2019-04-23T21:36:02.892Z,3.83
2019-04-23T21:38:31.733Z,3.70
2019-04-23T21:42:53.704Z,4.43
2019-04-23T21:44:57.542Z,3.90
2019-04-23T21:47:09.945Z,4.10
2019-04-23T21:49:31.928Z,4.00
2019-04-23T21:51:46.439Z,3.80
2019-04-23T21:58:26.199Z,3.67
2019-04-23T22:00:36.514Z,3.80
2019-04-23T22:02:47.137Z,4.10
2019-04-23T22:05:09.268Z,3.80
2019-04-23T22:07:25.486Z,3.97
2019-04-23T22:09:22.399Z,3.67
2019-04-23T22:13:57.922Z,3.83
2019-04-23T22:16:11.073Z,3.50
2019-04-23T22:18:12.868Z,4.10
2019-04-23T22:20:27.737Z,3.93
2019-04-23T22:22:52.893Z,3.93
2019-04-23T22:26:58.363Z,4.13
2019-04-23T22:33:46.916Z,3.67
2019-04-23T22:40:16.596Z,4.17
2019-04-23T22:42:57.131Z,3.97
2019-04-23T22:47:00.673Z,3.83
2019-04-23T22:49:22.778Z,3.57
2019-04-23T22:51:35.464Z,4.00
2019-04-23T22:53:46.597Z,3.80
2019-04-23T22:55:57.390Z,3.83
2019-04-23T23:00:19.144Z,4.20
2019-04-23T23:02:59.445Z,3.90
2019-04-23T23:09:32.798Z,3.97
2019-04-23T23:11:47.644Z,3.90
2019-04-23T23:20:37.967Z,4.00
2019-04-23T23:22:58.467Z,3.80
2019-04-23T23:25:04.725Z,4.00
2019-04-23T23:27:21.343Z,4.03
2019-04-23T23:29:23.476Z,3.47
2019-04-23T23:31:39.738Z,4.00
2019-04-23T23:33:54.216Z,4.20
2019-04-23T23:36:09.916Z,4.07
2019-04-23T23:40:30.272Z,3.77
2019-04-23T23:42:43.399Z,4.20
2019-04-23T23:45:02.234Z,4.30
2019-04-23T23:47:09.071Z,4.23
2019-04-23T23:49:24.036Z,4.23
2019-04-23T23:51:43.498Z,4.00
2019-04-23T23:54:00.418Z,4.07
2019-04-23T23:56:04.795Z,4.27
2019-04-23T23:58:23.058Z,3.80
